createdAt,value
2022-08-30T00:00:58.727Z,89.73
2022-08-30T00:03:25.566Z,90.58
2022-08-30T00:05:52.069Z,91.71
2022-08-30T00:08:22.960Z,92.03
2022-08-30T00:10:51.120Z,92.13
2022-08-30T00:13:18.729Z,92.22
2022-08-30T00:15:45.998Z,92.80
2022-08-30T00:18:12.532Z,92.38
2022-08-30T00:20:39.018Z,92.77
2022-08-30T00:23:06.227Z,92.50
2022-08-30T00:25:33.118Z,91.76
2022-08-30T00:27:59.563Z,91.58
2022-08-30T00:30:26.522Z,90.77
2022-08-30T00:32:53.953Z,91.06
2022-08-30T00:35:21.171Z,91.74
2022-08-30T00:37:48.638Z,92.79
2022-08-30T00:40:16.034Z,92.42
2022-08-30T00:42:44.128Z,92.06
2022-08-30T00:45:26.012Z,92.50
2022-08-30T00:47:52.411Z,92.22
2022-08-30T00:50:21.779Z,92.19
2022-08-30T00:52:50.645Z,92.34
2022-08-30T00:55:18.181Z,92.09
2022-08-30T00:57:46.737Z,92.27
2022-08-30T01:00:18.378Z,92.48
2022-08-30T01:02:44.817Z,92.56
2022-08-30T01:05:16.094Z,91.38
2022-08-30T01:07:42.799Z,91.43
2022-08-30T01:10:11.488Z,91.72
2022-08-30T01:12:39.894Z,91.45
2022-08-30T01:15:07.643Z,91.41
2022-08-30T01:17:34.534Z,90.84
2022-08-30T01:20:08.506Z,91.73
2022-08-30T01:22:43.278Z,91.63
2022-08-30T01:25:12.646Z,91.64
2022-08-30T01:27:44.542Z,91.16
2022-08-30T01:30:12.085Z,90.64
2022-08-30T01:32:41.678Z,90.49
2022-08-30T01:35:08.955Z,90.72
2022-08-30T01:37:37.160Z,91.25
2022-08-30T01:40:05.917Z,91.17
2022-08-30T01:42:32.649Z,91.09
2022-08-30T01:44:59.170Z,91.62
2022-08-30T01:47:25.864Z,91.76
2022-08-30T01:49:52.266Z,91.54
2022-08-30T01:52:18.803Z,92.53
2022-08-30T01:54:46.093Z,92.59
2022-08-30T01:57:17.395Z,92.28
2022-08-30T01:59:47.526Z,92.07
2022-08-30T02:02:16.829Z,92.11
2022-08-30T02:04:43.801Z,92.39
2022-08-30T02:07:11.057Z,93.10
2022-08-30T02:09:37.872Z,93.16
2022-08-30T02:12:07.216Z,92.98
2022-08-30T02:14:37.784Z,92.88
2022-08-30T02:17:07.360Z,92.94
2022-08-30T02:19:34.029Z,92.68
2022-08-30T02:22:00.445Z,93.18
2022-08-30T02:24:27.248Z,93.18
2022-08-30T02:26:54.059Z,92.97
2022-08-30T02:29:22.240Z,92.73
2022-08-30T02:31:48.784Z,92.62
2022-08-30T02:34:16.217Z,92.84
2022-08-30T02:36:43.099Z,93.26
2022-08-30T02:39:11.990Z,92.40
2022-08-30T02:41:39.115Z,92.95
2022-08-30T02:44:06.547Z,92.89
2022-08-30T02:46:34.510Z,92.97
2022-08-30T02:49:13.035Z,93.12
2022-08-30T02:51:47.843Z,92.35
2022-08-30T02:54:19.919Z,92.28
2022-08-30T02:56:47.843Z,92.44
2022-08-30T02:59:15.300Z,92.19
2022-08-30T03:01:41.768Z,92.21
2022-08-30T03:04:08.435Z,92.82
2022-08-30T03:06:34.870Z,92.96
2022-08-30T03:09:01.501Z,93.66
2022-08-30T03:11:27.977Z,93.48
2022-08-30T03:13:54.480Z,93.39
2022-08-30T03:16:22.661Z,93.28
2022-08-30T03:18:49.179Z,93.54
2022-08-30T03:21:17.094Z,93.40
2022-08-30T03:23:44.396Z,93.54
2022-08-30T03:26:13.141Z,94.07
2022-08-30T03:28:40.143Z,93.97
2022-08-30T03:31:07.000Z,94.74
2022-08-30T03:33:33.427Z,95.14
2022-08-30T03:36:00.226Z,95.80
2022-08-30T03:38:26.717Z,96.75
2022-08-30T03:40:53.212Z,97.37
2022-08-30T03:43:19.595Z,97.32
2022-08-30T03:45:46.143Z,96.79
2022-08-30T03:48:12.900Z,96.07
2022-08-30T03:50:40.411Z,95.82
2022-08-30T03:53:06.945Z,95.80
2022-08-30T03:55:33.723Z,96.29
2022-08-30T03:58:00.343Z,96.25
2022-08-30T04:00:26.874Z,96.35
2022-08-30T04:02:53.328Z,96.37
2022-08-30T04:05:20.277Z,96.28
2022-08-30T04:07:46.703Z,96.11
2022-08-30T04:10:13.262Z,95.85
2022-08-30T04:12:39.690Z,95.77
2022-08-30T04:15:07.600Z,95.43
2022-08-30T04:17:34.002Z,95.02
2022-08-30T04:20:00.439Z,94.54
2022-08-30T04:22:26.772Z,94.66
2022-08-30T04:24:53.350Z,94.66
2022-08-30T04:27:20.429Z,94.96
2022-08-30T04:29:47.670Z,95.55
2022-08-30T04:32:14.617Z,95.56
2022-08-30T04:34:40.994Z,96.05
2022-08-30T04:37:07.408Z,96.37
2022-08-30T04:39:36.475Z,96.62
2022-08-30T04:42:03.345Z,96.29
2022-08-30T04:44:31.416Z,96.43
2022-08-30T04:46:58.919Z,97.41
2022-08-30T04:49:25.261Z,97.30
2022-08-30T04:51:51.619Z,97.37
2022-08-30T04:54:19.332Z,97.39
2022-08-30T04:56:45.748Z,97.72
2022-08-30T04:59:12.153Z,97.90
2022-08-30T05:01:45.660Z,97.99
2022-08-30T05:04:13.069Z,97.86
2022-08-30T05:06:39.464Z,97.77
2022-08-30T05:09:05.892Z,98.00
2022-08-30T05:11:32.317Z,98.16
2022-08-30T05:13:58.992Z,98.08
2022-08-30T05:16:25.980Z,98.35
2022-08-30T05:18:53.713Z,98.25
2022-08-30T05:21:23.562Z,97.59
2022-08-30T05:23:50.570Z,98.04
2022-08-30T05:26:25.709Z,98.56
2022-08-30T05:28:52.567Z,98.08
2022-08-30T05:31:45.353Z,97.88
2022-08-30T05:34:11.992Z,97.92
2022-08-30T05:36:38.977Z,98.20
2022-08-30T05:39:07.516Z,98.23
2022-08-30T05:41:36.873Z,97.97
2022-08-30T05:44:05.150Z,97.96
2022-08-30T05:49:06.270Z,97.36
2022-08-30T05:51:35.896Z,97.03
2022-08-30T05:54:09.553Z,96.57
2022-08-30T05:56:39.294Z,96.48
2022-08-30T05:59:07.589Z,96.74
2022-08-30T06:01:37.826Z,97.17
2022-08-30T06:04:06.259Z,96.59
2022-08-30T06:06:35.376Z,96.47
2022-08-30T06:09:05.131Z,96.48
2022-08-30T06:11:32.881Z,96.49
2022-08-30T06:13:59.288Z,96.36
2022-08-30T06:16:28.302Z,96.38
2022-08-30T06:18:57.107Z,96.31
2022-08-30T06:21:28.582Z,95.34
2022-08-30T06:23:56.356Z,95.22
2022-08-30T06:26:23.277Z,95.21
2022-08-30T06:28:49.793Z,95.47
2022-08-30T06:31:18.648Z,95.37
2022-08-30T06:33:45.637Z,94.97
2022-08-30T06:36:19.112Z,94.13
2022-08-30T06:38:46.832Z,93.95
2022-08-30T06:41:16.807Z,93.42
2022-08-30T06:43:48.632Z,93.83
2022-08-30T06:46:18.632Z,94.09
2022-08-30T06:48:47.788Z,94.80
2022-08-30T06:51:15.614Z,94.82
2022-08-30T06:53:42.610Z,94.98
2022-08-30T06:56:16.478Z,95.34
2022-08-30T06:58:44.051Z,96.06
2022-08-30T07:01:18.035Z,96.12
2022-08-30T07:03:44.527Z,96.51
2022-08-30T07:06:11.350Z,96.54
2022-08-30T07:08:38.561Z,96.90
2022-08-30T07:11:06.026Z,96.87
2022-08-30T07:13:32.581Z,96.30
2022-08-30T07:15:59.026Z,95.70
2022-08-30T07:18:44.360Z,96.02
2022-08-30T07:21:16.442Z,96.05
2022-08-30T07:23:44.736Z,96.18
2022-08-30T07:26:13.600Z,96.20
2022-08-30T07:28:42.437Z,96.31
2022-08-30T07:31:09.920Z,96.11
2022-08-30T07:33:36.541Z,95.44
2022-08-30T07:36:05.113Z,95.40
2022-08-30T07:38:31.979Z,95.31
2022-08-30T07:41:01.273Z,94.84
2022-08-30T07:43:28.592Z,94.10
2022-08-30T07:45:58.032Z,94.43
2022-08-30T07:48:24.568Z,94.21
2022-08-30T07:50:56.377Z,93.98
2022-08-30T07:53:24.447Z,94.42
2022-08-30T07:55:50.974Z,94.04
2022-08-30T07:58:17.608Z,93.63
2022-08-30T08:00:44.214Z,92.74
2022-08-30T08:03:10.977Z,92.84
2022-08-30T08:05:42.696Z,93.59
2022-08-30T08:08:09.896Z,93.28
2022-08-30T08:10:39.690Z,93.17
2022-08-30T08:13:06.257Z,92.61
2022-08-30T08:15:33.589Z,91.57
2022-08-30T08:18:01.078Z,90.60
2022-08-30T08:20:29.102Z,90.89
2022-08-30T08:22:55.674Z,90.15
2022-08-30T08:25:22.861Z,90.21
2022-08-30T08:27:50.780Z,90.98
2022-08-30T08:30:21.905Z,90.47
2022-08-30T08:32:49.408Z,90.95
2022-08-30T08:35:17.589Z,90.14
2022-08-30T08:37:44.233Z,90.15
2022-08-30T08:40:16.073Z,89.93
2022-08-30T08:42:58.721Z,90.68
2022-08-30T08:45:36.152Z,91.15
2022-08-30T08:48:17.802Z,91.44
2022-08-30T08:51:07.216Z,90.74
2022-08-30T08:53:46.224Z,89.10
2022-08-30T08:56:16.270Z,89.36
2022-08-30T08:58:46.151Z,88.06
2022-08-30T09:01:16.063Z,88.73
2022-08-30T09:03:45.567Z,88.68
2022-08-30T09:06:24.750Z,87.48
2022-08-30T09:08:51.290Z,86.83
2022-08-30T09:11:26.328Z,86.96
2022-08-30T09:13:54.517Z,85.57
2022-08-30T09:16:45.489Z,86.19
2022-08-30T09:19:12.024Z,84.46
2022-08-30T09:21:38.503Z,82.54
2022-08-30T09:24:07.206Z,81.73
2022-08-30T09:26:36.089Z,82.01
2022-08-30T09:29:04.969Z,80.80
2022-08-30T09:31:45.470Z,78.09
2022-08-30T09:34:17.967Z,77.82
2022-08-30T09:36:49.723Z,76.88
2022-08-30T09:39:18.533Z,78.03
2022-08-30T09:41:48.509Z,76.64
2022-08-30T09:44:25.121Z,75.87
2022-08-30T09:46:54.460Z,73.37
2022-08-30T09:49:37.949Z,73.62
2022-08-30T09:52:13.511Z,74.34
2022-08-30T09:54:52.438Z,73.99
2022-08-30T09:57:57.839Z,73.34
2022-08-30T10:00:31.395Z,73.26
2022-08-30T10:06:38.896Z,74.63
2022-08-30T10:09:38.685Z,73.30
2022-08-30T10:12:34.390Z,74.13
2022-08-30T10:15:24.760Z,76.09
2022-08-30T10:18:06.917Z,76.29
2022-08-30T10:20:35.951Z,76.89
2022-08-30T10:23:11.644Z,77.76
2022-08-30T10:25:48.134Z,78.28
2022-08-30T10:28:19.691Z,78.51
2022-08-30T10:30:57.004Z,78.11
2022-08-30T10:33:28.646Z,78.79
2022-08-30T10:36:01.924Z,78.13
2022-08-30T10:38:35.378Z,77.73
2022-08-30T10:41:22.021Z,78.67
2022-08-30T10:44:23.148Z,78.12
2022-08-30T10:47:18.555Z,78.44
2022-08-30T10:49:57.210Z,79.31
2022-08-30T10:52:27.792Z,76.58
2022-08-30T10:55:00.053Z,75.16
2022-08-30T10:57:27.170Z,75.41
2022-08-30T11:00:24.844Z,75.32
2022-08-30T11:03:09.921Z,76.71
2022-08-30T11:05:58.230Z,74.87
2022-08-30T11:08:46.187Z,74.58
2022-08-30T11:11:50.453Z,74.01
2022-08-30T11:14:19.865Z,73.29
2022-08-30T11:16:54.801Z,74.53
2022-08-30T11:19:26.498Z,71.97
2022-08-30T11:22:22.479Z,72.06
2022-08-30T11:25:38.770Z,73.12
2022-08-30T11:28:06.254Z,72.99
2022-08-30T11:30:32.554Z,72.41
2022-08-30T11:33:22.353Z,72.61
2022-08-30T11:35:52.282Z,71.42
2022-08-30T11:38:28.146Z,72.31
2022-08-30T11:40:54.450Z,71.69
2022-08-30T11:43:39.945Z,74.52
2022-08-30T11:46:36.058Z,76.74
2022-08-30T11:49:14.867Z,75.66
2022-08-30T11:55:19.014Z,79.12
2022-08-30T11:58:23.353Z,77.16
2022-08-30T12:01:41.933Z,77.22
2022-08-30T12:04:08.053Z,75.43
2022-08-30T12:06:41.720Z,74.68
2022-08-30T12:09:20.160Z,73.46
2022-08-30T12:11:55.698Z,70.90
2022-08-30T12:14:44.520Z,71.00
2022-08-30T12:17:36.352Z,70.92
2022-08-30T12:20:05.455Z,70.77
2022-08-30T12:22:37.632Z,71.89
2022-08-30T12:25:16.776Z,69.26
2022-08-30T12:27:43.197Z,70.79
2022-08-30T12:30:10.268Z,69.88
2022-08-30T12:32:45.211Z,68.08
2022-08-30T12:35:24.508Z,76.30
2022-08-30T12:38:04.281Z,65.81
2022-08-30T12:40:31.530Z,66.56
2022-08-30T12:43:01.518Z,65.90
2022-08-30T12:45:36.913Z,63.59
2022-08-30T12:48:07.604Z,68.78
2022-08-30T12:50:38.062Z,64.52
2022-08-30T12:53:14.265Z,81.21
2022-08-30T12:55:59.229Z,63.69
2022-08-30T12:58:48.166Z,71.31
2022-08-30T13:01:28.414Z,62.21
2022-08-30T13:04:18.718Z,59.13
2022-08-30T13:06:55.912Z,62.15
2022-08-30T13:09:26.816Z,58.97
2022-08-30T13:11:53.762Z,57.96
2022-08-30T13:14:42.433Z,59.84
2022-08-30T13:17:25.506Z,65.73
2022-08-30T13:19:57.747Z,59.48
2022-08-30T13:22:27.958Z,59.33
2022-08-30T13:24:55.509Z,62.83
2022-08-30T13:27:22.731Z,60.86
2022-08-30T13:29:49.227Z,59.19
2022-08-30T13:32:16.576Z,58.97
2022-08-30T13:34:43.893Z,60.42
2022-08-30T13:40:07.846Z,57.59
2022-08-30T13:42:35.672Z,60.26
2022-08-30T13:45:02.875Z,59.04
2022-08-30T13:47:32.491Z,59.99
2022-08-30T13:49:59.325Z,59.45
2022-08-30T13:52:26.038Z,57.17
2022-08-30T13:54:54.503Z,56.39
2022-08-30T14:00:17.323Z,59.35
2022-08-30T14:02:49.032Z,61.36
2022-08-30T14:05:47.063Z,59.52
2022-08-30T14:08:05.962Z,61.34
2022-08-30T14:10:37.704Z,60.26
2022-08-30T14:13:12.256Z,60.80
2022-08-30T14:15:41.263Z,59.48
2022-08-30T14:18:08.484Z,59.65
2022-08-30T14:20:38.748Z,62.53
2022-08-30T14:23:07.656Z,62.24
2022-08-30T14:25:37.161Z,60.68
2022-08-30T14:28:03.783Z,61.80
2022-08-30T14:30:30.189Z,61.97
2022-08-30T14:32:56.541Z,61.95
2022-08-30T14:35:22.935Z,61.81
2022-08-30T14:37:50.414Z,63.62
2022-08-30T14:40:17.698Z,63.77
2022-08-30T14:42:44.132Z,61.12
2022-08-30T14:45:10.925Z,63.06
2022-08-30T14:47:37.351Z,59.56
2022-08-30T14:50:06.164Z,61.10
2022-08-30T14:52:33.276Z,59.53
2022-08-30T14:55:08.684Z,60.58
2022-08-30T14:57:37.400Z,61.44
2022-08-30T15:00:06.795Z,60.05
2022-08-30T15:02:33.148Z,61.49
2022-08-30T15:04:59.540Z,61.21
2022-08-30T15:07:25.934Z,61.08
2022-08-30T15:09:53.027Z,59.74
2022-08-30T15:12:19.456Z,61.73
2022-08-30T15:14:46.337Z,60.22
2022-08-30T15:17:12.968Z,59.42
2022-08-30T15:19:39.492Z,60.37
2022-08-30T15:22:06.839Z,59.08
2022-08-30T15:24:34.753Z,61.64
2022-08-30T15:27:02.099Z,59.97
2022-08-30T15:29:30.527Z,59.64
2022-08-30T15:31:59.932Z,55.44
2022-08-30T15:34:28.271Z,57.48
2022-08-30T15:36:55.085Z,53.99
2022-08-30T15:39:21.501Z,52.93
2022-08-30T15:41:57.079Z,49.78
2022-08-30T15:44:26.648Z,50.20
2022-08-30T15:46:53.184Z,50.86
2022-08-30T15:49:21.946Z,50.94
2022-08-30T15:51:51.430Z,49.44
2022-08-30T15:54:21.108Z,48.97
2022-08-30T15:56:48.069Z,49.06
2022-08-30T15:59:15.375Z,50.43
2022-08-30T16:01:43.322Z,47.06
2022-08-30T16:04:10.638Z,48.93
2022-08-30T16:06:37.737Z,48.95
2022-08-30T16:09:05.976Z,48.99
2022-08-30T16:11:32.993Z,47.54
2022-08-30T16:14:01.080Z,47.60
2022-08-30T16:16:27.595Z,49.48
2022-08-30T16:18:55.091Z,49.03
2022-08-30T16:21:28.087Z,46.79
2022-08-30T16:24:00.483Z,47.20
2022-08-30T16:26:28.499Z,49.62
2022-08-30T16:28:55.497Z,47.38
2022-08-30T16:31:23.437Z,46.22
2022-08-30T16:33:52.677Z,48.98
2022-08-30T16:36:20.354Z,48.90
2022-08-30T16:38:48.602Z,48.93
2022-08-30T16:41:21.009Z,49.91
2022-08-30T16:43:49.628Z,49.54
2022-08-30T16:46:22.877Z,48.94
2022-08-30T16:48:50.021Z,49.68
2022-08-30T16:51:21.192Z,50.00
2022-08-30T16:53:49.321Z,49.42
2022-08-30T16:56:18.782Z,50.21
2022-08-30T16:58:46.837Z,50.20
2022-08-30T17:01:13.985Z,51.01
2022-08-30T17:03:41.087Z,52.17
2022-08-30T17:06:08.123Z,51.29
2022-08-30T17:08:34.919Z,51.39
2022-08-30T17:11:01.466Z,52.47
2022-08-30T17:13:28.409Z,52.56
2022-08-30T17:15:55.806Z,52.70
2022-08-30T17:18:22.388Z,51.85
2022-08-30T17:20:48.864Z,51.38
2022-08-30T17:23:15.628Z,52.51
2022-08-30T17:25:43.295Z,54.41
2022-08-30T17:28:10.822Z,51.41
2022-08-30T17:30:37.520Z,51.92
2022-08-30T17:33:04.521Z,54.46
2022-08-30T17:35:31.056Z,54.19
2022-08-30T17:37:57.748Z,53.38
2022-08-30T17:40:24.168Z,55.42
2022-08-30T17:42:51.034Z,56.31
2022-08-30T17:45:17.995Z,57.58
2022-08-30T17:47:44.912Z,55.40
2022-08-30T17:50:12.130Z,57.73
2022-08-30T17:52:39.006Z,57.12
2022-08-30T17:55:07.091Z,58.19
2022-08-30T17:57:33.576Z,59.67
2022-08-30T18:00:00.720Z,59.79
2022-08-30T18:02:29.917Z,61.15
2022-08-30T18:04:58.107Z,59.77
2022-08-30T18:07:26.360Z,64.02
2022-08-30T18:09:53.808Z,61.24
2022-08-30T18:12:21.105Z,60.69
2022-08-30T18:14:52.887Z,62.84
2022-08-30T18:17:20.848Z,65.12
2022-08-30T18:19:47.307Z,65.93
2022-08-30T18:22:15.722Z,62.77
2022-08-30T18:24:42.103Z,63.63
2022-08-30T18:27:08.448Z,63.97
2022-08-30T18:29:37.824Z,63.75
2022-08-30T18:32:04.717Z,63.26
2022-08-30T18:34:32.483Z,63.82
2022-08-30T18:36:59.640Z,64.32
2022-08-30T18:39:26.228Z,66.88
2022-08-30T18:41:55.752Z,67.08
2022-08-30T18:44:28.414Z,68.53
2022-08-30T18:46:57.182Z,67.92
2022-08-30T18:49:25.139Z,68.71
2022-08-30T18:51:51.679Z,68.88
2022-08-30T18:54:18.432Z,70.59
2022-08-30T18:56:45.396Z,71.14
2022-08-30T18:59:12.522Z,71.04
2022-08-30T19:01:39.026Z,70.86
2022-08-30T19:04:07.041Z,72.33
2022-08-30T19:06:34.479Z,74.00
2022-08-30T19:09:00.852Z,76.42
2022-08-30T19:11:27.707Z,74.96
2022-08-30T19:13:54.815Z,75.53
2022-08-30T19:16:21.938Z,75.00
2022-08-30T19:18:48.605Z,76.38
2022-08-30T19:21:15.173Z,77.12
2022-08-30T19:23:44.277Z,77.69
2022-08-30T19:26:10.771Z,78.96
2022-08-30T19:28:37.781Z,77.12
2022-08-30T19:31:06.492Z,78.61
2022-08-30T19:33:33.280Z,79.43
2022-08-30T19:36:00.455Z,79.39
2022-08-30T19:38:26.944Z,79.21
2022-08-30T19:40:59.911Z,79.97
2022-08-30T19:43:27.607Z,80.78
2022-08-30T19:45:59.549Z,82.49
2022-08-30T19:48:32.116Z,83.40
2022-08-30T19:51:06.446Z,84.56
2022-08-30T19:53:33.862Z,84.88
2022-08-30T19:56:00.472Z,84.24
2022-08-30T19:58:27.008Z,84.42
2022-08-30T20:00:54.499Z,83.89
2022-08-30T20:03:28.022Z,85.16
2022-08-30T20:05:54.777Z,84.84
2022-08-30T20:08:21.801Z,84.67
2022-08-30T20:10:48.501Z,84.60
2022-08-30T20:13:15.047Z,84.70
2022-08-30T20:15:41.539Z,84.94
2022-08-30T20:18:13.583Z,85.11
2022-08-30T20:20:42.734Z,85.62
2022-08-30T20:23:16.120Z,86.68
2022-08-30T20:25:49.744Z,87.02
2022-08-30T20:28:16.337Z,87.91
2022-08-30T20:30:43.533Z,87.79
2022-08-30T20:33:10.339Z,88.02
2022-08-30T20:35:36.845Z,88.89
2022-08-30T20:38:06.357Z,89.23
2022-08-30T20:40:34.880Z,89.61
2022-08-30T20:43:02.081Z,90.17
2022-08-30T20:45:31.098Z,90.28
2022-08-30T20:47:57.572Z,90.14
2022-08-30T20:50:24.051Z,89.31
2022-08-30T20:52:50.425Z,89.43
2022-08-30T20:55:17.332Z,90.47
2022-08-30T20:57:44.128Z,91.35
2022-08-30T21:00:13.529Z,91.27
2022-08-30T21:02:45.573Z,91.25
2022-08-30T21:05:15.263Z,92.02
2022-08-30T21:07:43.097Z,91.72
2022-08-30T21:10:10.415Z,92.27
2022-08-30T21:12:36.833Z,92.66
2022-08-30T21:15:27.002Z,92.42
2022-08-30T21:17:51.144Z,92.39
2022-08-30T21:20:17.660Z,92.71
2022-08-30T21:22:43.997Z,93.14
2022-08-30T21:25:11.077Z,92.64
2022-08-30T21:27:37.476Z,93.35
2022-08-30T21:30:04.960Z,93.69
2022-08-30T21:32:31.980Z,93.52
2022-08-30T21:35:17.068Z,93.58
2022-08-30T21:37:43.436Z,93.68
2022-08-30T21:40:14.852Z,93.82
2022-08-30T21:42:41.809Z,93.57
2022-08-30T21:45:08.836Z,93.77
2022-08-30T21:47:35.268Z,93.98
2022-08-30T21:50:01.901Z,94.34
2022-08-30T21:52:28.224Z,95.20
2022-08-30T21:54:54.585Z,95.12
2022-08-30T21:57:20.997Z,94.76
2022-08-30T21:59:47.361Z,94.03
2022-08-30T22:02:13.866Z,94.44
2022-08-30T22:04:41.124Z,94.94
2022-08-30T22:07:08.267Z,95.31
2022-08-30T22:09:35.499Z,95.25
2022-08-30T22:12:04.533Z,96.08
2022-08-30T22:14:33.512Z,96.53
2022-08-30T22:16:59.964Z,96.78
2022-08-30T22:19:26.525Z,96.76
2022-08-30T22:21:53.829Z,96.83
2022-08-30T22:24:29.226Z,96.66
2022-08-30T22:26:58.971Z,96.37
2022-08-30T22:29:25.309Z,97.01
2022-08-30T22:31:51.780Z,97.46
2022-08-30T22:34:18.157Z,97.46
2022-08-30T22:36:44.570Z,96.93
2022-08-30T22:39:11.181Z,97.28
2022-08-30T22:41:37.610Z,97.63
2022-08-30T22:44:04.426Z,98.00
2022-08-30T22:46:34.372Z,98.00
2022-08-30T22:49:02.198Z,98.07
2022-08-30T22:51:29.030Z,98.24
2022-08-30T22:53:55.779Z,98.30
2022-08-30T22:56:24.890Z,98.15
2022-08-30T22:58:52.355Z,98.55
2022-08-30T23:01:39.810Z,98.55
2022-08-30T23:04:07.667Z,99.10
2022-08-30T23:06:34.382Z,99.56
2022-08-30T23:09:01.217Z,99.33
2022-08-30T23:11:27.783Z,99.09
2022-08-30T23:13:56.702Z,99.36
2022-08-30T23:16:23.577Z,99.13
2022-08-30T23:18:50.097Z,99.05
2022-08-30T23:21:23.902Z,99.70
2022-08-30T23:24:10.932Z,99.99
2022-08-30T23:26:56.720Z,99.74
2022-08-30T23:29:42.727Z,99.69
2022-08-30T23:32:28.227Z,99.13
2022-08-30T23:35:13.722Z,98.14
2022-08-30T23:37:58.466Z,97.59
2022-08-30T23:40:43.622Z,97.72
2022-08-30T23:43:29.291Z,97.71
2022-08-30T23:46:18.868Z,97.94
2022-08-30T23:49:04.370Z,98.26
2022-08-30T23:51:49.747Z,98.84
2022-08-30T23:54:34.753Z,99.24
2022-08-30T23:57:19.596Z,99.85
